Time;durP1;ratioP1;P1;durP2;ratioP2;P2;SDS_P1;SDS_P2;PMS_P1;PMS_P2;Temp;Humidity;BMP_temperature;BMP_pressure;BME280_temperature;BME280_humidity;BME280_pressure;Samples;Min_cycle;Max_cycle;Signal;HPM_P1;HPM_P2
2022/11/08 00:01:48;;;;;;;6.47;2.50;;;13.30;99.90;;;;;;5081957;28;20847;-38
2022/11/08 00:04:15;;;;;;;3.63;2.30;;;13.20;99.90;;;;;;5090672;28;20509;-38
2022/11/08 00:14:57;;;;;;;9.30;2.87;;;13.30;99.90;;;;;;5090562;28;20442;-39
2022/11/08 00:17:26;;;;;;;5.90;2.70;;;13.20;99.90;;;;;;5090571;28;20467;-39
2022/11/08 00:19:51;;;;;;;3.50;2.33;;;13.20;99.90;;;;;;5090100;28;20808;-39
2022/11/08 00:22:17;;;;;;;2.80;2.10;;;13.10;99.90;;;;;;5090455;28;20458;-39
2022/11/08 00:24:43;;;;;;;5.67;2.20;;;13.10;99.90;;;;;;5090379;28;20611;-38
2022/11/08 00:27:20;;;;;;;6.63;2.50;;;13.10;99.90;;;;;;5090482;28;20187;-38
2022/11/08 00:29:46;;;;;;;2.70;2.37;;;13.20;99.90;;;;;;5090191;28;20651;-38
2022/11/08 00:32:23;;;;;;;5.17;2.40;;;13.10;99.90;;;;;;5089630;28;20487;-38
2022/11/08 00:34:49;;;;;;;3.83;2.50;;;13.10;99.90;;;;;;5088762;28;20446;-39
2022/11/08 00:37:16;;;;;;;6.80;2.63;;;13.10;99.90;;;;;;5090279;28;20446;-38
2022/11/08 00:39:42;;;;;;;4.80;2.87;;;13.00;99.90;;;;;;5090087;28;20535;-39
2022/11/08 00:42:08;;;;;;;6.30;2.90;;;13.00;99.90;;;;;;5090109;28;20516;-40
2022/11/08 00:44:34;;;;;;;5.17;2.60;;;13.00;99.90;;;;;;5089963;28;20184;-39
2022/11/08 00:46:59;;;;;;;4.67;2.53;;;13.00;99.90;;;;;;5090121;28;20211;-39
2022/11/08 00:49:25;;;;;;;4.90;2.67;;;13.00;99.90;;;;;;5089925;28;20415;-39
2022/11/08 00:51:51;;;;;;;5.00;2.03;;;13.00;99.90;;;;;;5090085;28;20177;-39
2022/11/08 00:54:20;;;;;;;3.40;2.00;;;13.10;99.90;;;;;;5089849;28;20666;-38
2022/11/08 00:56:46;;;;;;;3.93;2.30;;;13.10;99.90;;;;;;5090163;28;20430;-38
2022/11/08 00:59:14;;;;;;;6.20;1.93;;;13.10;99.90;;;;;;5089781;28;20419;-38
2022/11/08 01:01:40;;;;;;;5.73;2.13;;;13.10;99.90;;;;;;5089928;28;20820;-38
2022/11/08 01:04:07;;;;;;;4.70;2.00;;;13.10;99.90;;;;;;5089590;28;20440;-38
2022/11/08 01:06:33;;;;;;;5.00;2.40;;;13.10;99.90;;;;;;5089920;28;20437;-38
2022/11/08 01:08:59;;;;;;;5.17;2.70;;;13.10;99.90;;;;;;5089487;28;20445;-38
2022/11/08 01:11:25;;;;;;;6.60;2.13;;;13.10;99.90;;;;;;5088561;28;20465;-39
2022/11/08 01:13:56;;;;;;;4.10;1.90;;;13.10;99.90;;;;;;5089227;28;20430;-38
2022/11/08 01:16:24;;;;;;;4.57;1.93;;;13.10;99.90;;;;;;5089883;28;20438;-38
2022/11/08 01:18:51;;;;;;;4.10;2.07;;;13.10;99.90;;;;;;5089398;28;20485;-38
2022/11/08 01:21:17;;;;;;;5.20;1.97;;;13.20;99.90;;;;;;5089893;28;20481;-38
2022/11/08 01:23:44;;;;;;;5.87;2.10;;;13.20;99.90;;;;;;5089449;28;20422;-38
2022/11/08 01:26:17;;;;;;;5.73;2.20;;;13.20;99.90;;;;;;5089792;28;20280;-39
2022/11/08 01:28:43;;;;;;;4.23;1.97;;;13.20;99.90;;;;;;5087967;28;21077;-39
2022/11/08 01:31:14;;;;;;;4.20;2.33;;;13.20;99.90;;;;;;5089861;28;20478;-39
2022/11/08 01:33:40;;;;;;;3.33;1.97;;;13.20;99.90;;;;;;5088559;28;20422;-39
2022/11/08 01:36:10;;;;;;;2.10;1.80;;;13.20;99.90;;;;;;5089623;28;20533;-39
2022/11/08 01:38:37;;;;;;;8.00;2.20;;;13.30;99.90;;;;;;5089400;28;20584;-38
2022/11/08 01:41:03;;;;;;;2.73;2.17;;;13.30;99.90;;;;;;5089440;28;20457;-38
2022/11/08 01:43:28;;;;;;;9.10;2.50;;;13.30;99.90;;;;;;5089260;28;20419;-39
2022/11/08 01:46:28;;;;;;;3.17;1.60;;;13.30;99.90;;;;;;5090558;28;20421;-39
2022/11/08 01:49:18;;;;;;;5.27;1.63;;;13.30;99.90;;;;;;5093232;28;20180;-38
2022/11/08 01:51:44;;;;;;;3.57;1.90;;;13.20;99.90;;;;;;5093328;28;20790;-39
2022/11/08 01:54:13;;;;;;;3.43;2.40;;;13.40;99.90;;;;;;5090325;28;20441;-39
2022/11/08 01:56:40;;;;;;;3.57;1.57;;;13.40;99.90;;;;;;5091941;28;20185;-39
2022/11/08 01:59:08;;;;;;;4.33;2.17;;;13.40;99.90;;;;;;5092959;28;20819;-38
2022/11/08 02:01:35;;;;;;;4.37;2.10;;;13.40;99.90;;;;;;5093162;28;20457;-38
2022/11/08 02:04:02;;;;;;;4.57;1.67;;;13.50;99.90;;;;;;5092571;28;20425;-38
2022/11/08 02:06:30;;;;;;;3.37;1.80;;;13.40;99.90;;;;;;5093261;28;20434;-38
2022/11/08 02:08:59;;;;;;;3.63;2.70;;;13.50;99.90;;;;;;5092743;28;20422;-38
2022/11/08 02:11:25;;;;;;;5.47;1.87;;;13.50;99.90;;;;;;5093257;28;20418;-38
2022/11/08 02:13:52;;;;;;;4.60;1.70;;;13.50;99.90;;;;;;5092668;28;20410;-38
2022/11/08 02:16:18;;;;;;;4.63;1.80;;;13.40;99.90;;;;;;5093006;28;20501;-39
2022/11/08 02:18:45;;;;;;;3.30;2.10;;;13.40;99.90;;;;;;5092322;28;20498;-39
2022/11/08 02:21:26;;;;;;;2.77;2.27;;;13.40;99.90;;;;;;5092866;28;20633;-38
2022/11/08 02:23:55;;;;;;;3.43;2.10;;;13.40;99.90;;;;;;5087884;28;20418;-38
2022/11/08 02:26:29;;;;;;;5.37;1.70;;;13.40;99.90;;;;;;5093027;28;20493;-39
2022/11/08 02:28:56;;;;;;;3.97;2.07;;;13.30;99.90;;;;;;5092256;28;20406;-39
2022/11/08 02:31:22;;;;;;;5.70;1.60;;;13.30;99.90;;;;;;5092113;28;20905;-38
2022/11/08 02:33:48;;;;;;;4.30;2.00;;;13.30;99.90;;;;;;5090745;28;20853;-38
2022/11/08 02:36:17;;;;;;;5.63;2.13;;;13.30;99.90;;;;;;5091286;28;20428;-38
2022/11/08 02:38:46;;;;;;;6.13;2.30;;;13.30;99.90;;;;;;5090356;28;20463;-38
2022/11/08 02:41:12;;;;;;;4.00;2.60;;;13.30;99.90;;;;;;5089311;28;20450;-38
2022/11/08 02:43:38;;;;;;;4.83;2.27;;;13.20;99.90;;;;;;5090134;28;20931;-39
2022/11/08 02:46:04;;;;;;;6.90;1.60;;;13.20;99.90;;;;;;5086849;28;20813;-39
2022/11/08 02:48:29;;;;;;;8.53;2.47;;;13.20;99.90;;;;;;5089643;28;20273;-39
2022/11/08 02:50:55;;;;;;;3.53;2.00;;;13.20;99.90;;;;;;5092403;28;20410;-39
2022/11/08 02:53:21;;;;;;;5.53;2.20;;;13.20;99.90;;;;;;5091219;28;20203;-38
2022/11/08 02:55:47;;;;;;;4.63;1.83;;;13.20;99.90;;;;;;5083912;28;20214;-38
2022/11/08 02:58:12;;;;;;;6.10;2.07;;;13.30;99.90;;;;;;5090472;28;20203;-38
2022/11/08 03:00:38;;;;;;;3.37;1.80;;;13.30;99.90;;;;;;5090345;28;20537;-38
2022/11/08 03:03:04;;;;;;;3.30;2.10;;;13.20;99.90;;;;;;5090235;28;20224;-38
2022/11/08 03:05:30;;;;;;;3.00;1.80;;;13.30;99.90;;;;;;5090370;28;20928;-39
2022/11/08 03:07:56;;;;;;;6.57;2.00;;;13.30;99.90;;;;;;5090155;28;20246;-38
2022/11/08 03:10:24;;;;;;;3.00;1.50;;;13.30;99.90;;;;;;5088603;28;20427;-39
2022/11/08 03:13:01;;;;;;;4.70;1.50;;;13.20;99.90;;;;;;5089331;28;20454;-39
2022/11/08 03:15:28;;;;;;;2.33;1.73;;;13.20;99.90;;;;;;5090261;28;20433;-38
2022/11/08 03:17:55;;;;;;;2.63;1.37;;;13.20;99.90;;;;;;5090004;28;20797;-39
2022/11/08 03:20:21;;;;;;;2.60;1.60;;;13.20;99.90;;;;;;5089849;28;20407;-40
2022/11/08 03:22:46;;;;;;;1.40;1.30;;;13.20;99.90;;;;;;5089540;28;20468;-38
2022/11/08 03:25:12;;;;;;;4.17;1.73;;;13.20;99.90;;;;;;5090005;28;20272;-38
2022/11/08 03:27:38;;;;;;;3.57;1.83;;;13.20;99.90;;;;;;5090033;28;20229;-38
2022/11/08 03:30:05;;;;;;;5.13;1.80;;;13.10;99.90;;;;;;5089655;28;20181;-39
2022/11/08 03:32:31;;;;;;;3.57;1.90;;;13.20;99.90;;;;;;5088419;28;20191;-38
2022/11/08 03:34:58;;;;;;;4.57;1.73;;;13.20;99.90;;;;;;5089712;28;20406;-39
2022/11/08 03:37:24;;;;;;;2.33;1.70;;;13.20;99.90;;;;;;5089848;28;20188;-38
2022/11/08 03:39:50;;;;;;;2.93;1.87;;;13.20;99.90;;;;;;5089097;28;20518;-39
2022/11/08 03:42:15;;;;;;;4.13;1.90;;;13.20;99.90;;;;;;5089655;28;20466;-38
2022/11/08 03:44:41;;;;;;;2.80;2.00;;;13.10;99.90;;;;;;5089448;28;20192;-39
2022/11/08 03:47:08;;;;;;;4.17;2.00;;;13.10;99.90;;;;;;5089696;28;20219;-38
2022/11/08 03:49:34;;;;;;;2.03;1.57;;;13.10;99.90;;;;;;5089585;28;20602;-38
2022/11/08 03:51:59;;;;;;;3.80;1.80;;;13.00;99.90;;;;;;5089696;28;20433;-39
2022/11/08 03:54:25;;;;;;;4.20;2.17;;;13.00;99.90;;;;;;5088762;28;20279;-39
2022/11/08 03:56:50;;;;;;;8.80;2.37;;;13.00;99.90;;;;;;5089471;28;20180;-39
2022/11/08 03:59:16;;;;;;;4.80;1.43;;;13.00;99.90;;;;;;5089577;28;20180;-38
2022/11/08 04:01:42;;;;;;;2.73;2.00;;;13.00;99.90;;;;;;5089332;28;20215;-38
2022/11/08 04:04:08;;;;;;;2.90;1.87;;;12.90;99.90;;;;;;5087835;28;20708;-38
2022/11/08 04:06:33;;;;;;;4.40;1.80;;;12.90;99.90;;;;;;5088928;28;20777;-38
2022/11/08 04:09:00;;;;;;;2.80;1.93;;;12.80;99.90;;;;;;5087916;28;20510;-38
2022/11/08 04:16:54;;;;;;;3.53;1.73;;;12.80;99.90;;;;;;5089445;28;20425;-39
2022/11/08 04:22:06;;;;;;;3.63;2.07;;;12.70;99.90;;;;;;5088649;28;20468;-38
2022/11/08 04:24:31;;;;;;;8.40;2.20;;;12.70;99.90;;;;;;5089159;28;20502;-39
2022/11/08 04:26:57;;;;;;;4.47;2.10;;;12.70;99.90;;;;;;5088843;28;20509;-39
2022/11/08 04:29:23;;;;;;;4.50;2.10;;;12.70;99.90;;;;;;5088582;28;20187;-39
2022/11/08 04:31:48;;;;;;;5.03;1.80;;;12.70;99.90;;;;;;5088627;28;20264;-39
2022/11/08 04:34:14;;;;;;;7.77;2.80;;;12.70;99.90;;;;;;5087362;28;20189;-39
2022/11/08 04:36:40;;;;;;;3.30;1.97;;;12.70;99.90;;;;;;5088712;28;20176;-39
2022/11/08 04:39:05;;;;;;;5.93;2.40;;;12.70;99.90;;;;;;5088440;28;20530;-38
2022/11/08 04:41:31;;;;;;;3.67;2.00;;;12.60;99.90;;;;;;5089060;28;20212;-38
2022/11/08 04:43:57;;;;;;;6.10;2.23;;;12.60;99.90;;;;;;5088800;28;20537;-38
2022/11/08 04:46:25;;;;;;;4.20;2.10;;;12.60;99.90;;;;;;5088443;28;20380;-39
2022/11/08 04:48:53;;;;;;;3.37;1.77;;;12.60;99.90;;;;;;5088294;28;20517;-38
2022/11/08 04:51:21;;;;;;;4.77;2.20;;;12.50;99.90;;;;;;5088665;28;20406;-38
2022/11/08 04:53:48;;;;;;;3.47;1.70;;;12.50;99.90;;;;;;5088123;28;20521;-38
2022/11/08 04:56:18;;;;;;;2.20;1.70;;;12.50;99.90;;;;;;5088628;28;20450;-38
2022/11/08 04:58:48;;;;;;;5.00;2.20;;;12.50;99.90;;;;;;5086701;28;20923;-39
2022/11/08 05:01:17;;;;;;;2.27;1.43;;;12.50;99.90;;;;;;5086905;28;20476;-39
2022/11/08 05:03:45;;;;;;;3.33;1.93;;;12.50;99.90;;;;;;5088096;28;20423;-38
2022/11/08 05:06:14;;;;;;;4.97;2.00;;;12.40;99.90;;;;;;5088357;28;20789;-38
2022/11/08 05:08:40;;;;;;;1.90;1.60;;;12.50;99.90;;;;;;5087821;28;20516;-39
2022/11/08 05:11:08;;;;;;;2.70;1.60;;;12.40;99.90;;;;;;5088446;28;20498;-39
2022/11/08 05:13:35;;;;;;;7.97;2.30;;;12.40;99.90;;;;;;5085524;28;20477;-39
2022/11/08 05:16:04;;;;;;;3.40;2.13;;;12.40;99.90;;;;;;5088060;28;20437;-39
2022/11/08 05:18:31;;;;;;;3.97;1.80;;;12.30;99.90;;;;;;5087967;28;20418;-39
2022/11/08 05:23:42;;;;;;;2.90;1.77;;;12.30;99.90;;;;;;5088006;28;20438;-38
2022/11/08 05:26:08;;;;;;;2.07;1.70;;;12.20;99.90;;;;;;5091930;28;20441;-38
2022/11/08 05:28:34;;;;;;;6.20;1.90;;;12.20;99.90;;;;;;5091921;28;20418;-38
2022/11/08 05:31:00;;;;;;;2.47;1.90;;;12.20;99.90;;;;;;5092012;28;20419;-39
2022/11/08 05:33:26;;;;;;;4.70;2.10;;;12.20;99.90;;;;;;5090399;28;20439;-38
2022/11/08 05:35:52;;;;;;;2.53;1.83;;;12.20;99.90;;;;;;5083313;28;20510;-38
2022/11/08 05:38:18;;;;;;;2.90;2.43;;;12.20;99.90;;;;;;5091619;28;20394;-38
2022/11/08 05:40:43;;;;;;;5.57;2.57;;;12.20;99.90;;;;;;5091276;28;20188;-38
2022/11/08 05:43:10;;;;;;;3.13;2.20;;;12.20;99.90;;;;;;5088103;28;20481;-38
2022/11/08 05:45:35;;;;;;;4.73;2.13;;;12.10;99.90;;;;;;5101031;28;20184;-39
2022/11/08 05:48:04;;;;;;;5.67;2.57;;;12.10;99.90;;;;;;5094946;28;20417;-38
2022/11/08 05:50:32;;;;;;;2.93;2.63;;;12.10;99.90;;;;;;5091661;28;20176;-38
2022/11/08 05:52:58;;;;;;;5.90;2.30;;;12.20;99.90;;;;;;5091377;28;20502;-39
2022/11/08 05:55:24;;;;;;;3.20;2.00;;;12.10;99.90;;;;;;5091194;28;20434;-38
2022/11/08 05:57:49;;;;;;;3.70;2.53;;;12.10;99.90;;;;;;5090914;28;20908;-39
2022/11/08 06:00:15;;;;;;;3.10;2.20;;;12.20;99.90;;;;;;5090557;28;20487;-38
2022/11/08 06:02:41;;;;;;;3.63;2.13;;;12.10;99.90;;;;;;5091037;28;20216;-39
2022/11/08 06:05:08;;;;;;;6.87;2.70;;;12.10;99.90;;;;;;5091362;28;21002;-39
2022/11/08 06:07:34;;;;;;;3.90;2.40;;;12.10;99.90;;;;;;5091307;28;20647;-38
2022/11/08 06:10:00;;;;;;;5.33;2.90;;;12.00;99.90;;;;;;5089851;28;20418;-38
2022/11/08 06:12:25;;;;;;;3.00;2.10;;;12.10;99.90;;;;;;5089839;28;20844;-39
2022/11/08 06:14:51;;;;;;;3.03;2.03;;;12.10;99.90;;;;;;5091516;28;20249;-38
2022/11/08 06:17:16;;;;;;;4.13;2.13;;;12.10;99.90;;;;;;5091795;28;20199;-39
2022/11/08 06:19:42;;;;;;;4.70;2.40;;;12.10;99.90;;;;;;5090812;28;20187;-38
2022/11/08 06:22:08;;;;;;;5.47;1.90;;;12.10;99.90;;;;;;5090925;28;20258;-38
2022/11/08 06:24:33;;;;;;;2.53;1.90;;;12.20;99.90;;;;;;5091248;28;20578;-38
2022/11/08 06:26:59;;;;;;;3.10;2.00;;;12.10;99.90;;;;;;5091272;28;20208;-38
2022/11/08 06:29:25;;;;;;;4.47;2.07;;;12.20;99.90;;;;;;5090591;28;20199;-39
2022/11/08 06:31:50;;;;;;;4.17;2.17;;;12.20;99.90;;;;;;5090333;28;20238;-39
2022/11/08 06:34:16;;;;;;;3.53;1.67;;;12.20;99.90;;;;;;5087894;28;20200;-38
2022/11/08 06:36:42;;;;;;;1.80;1.63;;;12.20;99.90;;;;;;5091131;28;20423;-39
2022/11/08 06:39:07;;;;;;;2.37;1.50;;;12.20;99.90;;;;;;5090372;28;20239;-38
2022/11/08 06:41:33;;;;;;;3.77;1.80;;;12.30;99.90;;;;;;5091071;28;20577;-39
2022/11/08 06:43:59;;;;;;;3.27;1.80;;;12.30;99.90;;;;;;5090705;28;20423;-39
2022/11/08 06:46:25;;;;;;;3.13;1.40;;;12.30;99.90;;;;;;5086954;28;20796;-39
2022/11/08 06:48:51;;;;;;;2.63;1.73;;;12.30;99.90;;;;;;5090780;28;20196;-39
2022/11/08 06:51:17;;;;;;;4.00;1.50;;;12.40;99.90;;;;;;5090979;28;20771;-39
2022/11/08 06:53:43;;;;;;;2.03;1.60;;;12.40;99.90;;;;;;5090339;28;20669;-39
2022/11/08 06:56:09;;;;;;;2.80;1.60;;;12.50;99.90;;;;;;5090324;28;20418;-38
2022/11/08 06:58:35;;;;;;;3.83;1.60;;;12.50;99.90;;;;;;5090235;28;20414;-38
2022/11/08 07:01:06;;;;;;;2.90;1.50;;;12.50;99.90;;;;;;5085582;28;20457;-38
2022/11/08 07:03:32;;;;;;;4.47;1.60;;;12.60;99.90;;;;;;5085062;28;20782;-39
2022/11/08 07:06:01;;;;;;;2.30;1.40;;;12.70;99.90;;;;;;5089786;28;20516;-39
2022/11/08 07:08:26;;;;;;;2.33;1.40;;;12.70;99.90;;;;;;5089520;28;20426;-39
2022/11/08 07:10:53;;;;;;;1.47;1.30;;;12.80;99.90;;;;;;5089477;28;20474;-38
2022/11/08 07:13:19;;;;;;;5.40;1.57;;;12.80;99.90;;;;;;5090320;28;20200;-38
2022/11/08 07:15:46;;;;;;;2.00;1.40;;;12.90;99.90;;;;;;5091768;28;20792;-39
2022/11/08 07:18:13;;;;;;;2.93;1.63;;;12.90;99.90;;;;;;5090628;28;20414;-39
2022/11/08 07:20:40;;;;;;;2.07;1.40;;;12.90;99.90;;;;;;5089722;28;20433;-39
2022/11/08 07:23:06;;;;;;;2.50;1.50;;;13.00;99.90;;;;;;5089672;28;20469;-38
2022/11/08 07:25:33;;;;;;;1.70;1.17;;;13.10;99.90;;;;;;5090864;28;20786;-38
2022/11/08 07:28:01;;;;;;;1.90;1.50;;;13.10;99.90;;;;;;5095070;28;20933;-39
2022/11/08 07:30:27;;;;;;;2.43;1.30;;;13.20;99.90;;;;;;5090375;28;20494;-39
2022/11/08 07:32:56;;;;;;;2.33;1.10;;;13.20;99.90;;;;;;5101558;28;20421;-39
2022/11/08 07:35:23;;;;;;;2.90;1.70;;;13.20;99.90;;;;;;5110316;28;20421;-38
2022/11/08 07:37:49;;;;;;;2.50;1.47;;;13.20;99.90;;;;;;5101991;28;20463;-39
2022/11/08 07:40:14;;;;;;;1.60;1.50;;;13.20;99.90;;;;;;5097775;28;20822;-38
2022/11/08 07:42:41;;;;;;;2.63;1.53;;;13.30;99.90;;;;;;5096032;28;20633;-39
2022/11/08 07:45:08;;;;;;;1.70;1.30;;;13.40;99.90;;;;;;5095169;28;20344;-38
2022/11/08 07:47:34;;;;;;;3.07;1.77;;;13.60;99.90;;;;;;5089658;28;20418;-39
2022/11/08 07:50:00;;;;;;;3.10;1.20;;;13.80;99.90;;;;;;5089005;28;20418;-39
2022/11/08 07:52:26;;;;;;;3.20;1.40;;;14.00;99.90;;;;;;5089534;28;21112;-39
2022/11/08 07:54:51;;;;;;;3.67;1.30;;;14.20;99.90;;;;;;5088020;28;20781;-39
2022/11/08 07:57:17;;;;;;;3.30;1.77;;;14.40;99.90;;;;;;5089643;28;20209;-39
2022/11/08 07:59:43;;;;;;;2.87;1.30;;;14.60;99.90;;;;;;5089074;28;20193;-39
2022/11/08 08:02:12;;;;;;;1.40;1.20;;;14.70;99.90;;;;;;5089394;28;21001;-38
2022/11/08 08:04:38;;;;;;;2.33;1.23;;;14.80;99.90;;;;;;5094908;28;20177;-39
2022/11/08 08:07:04;;;;;;;2.63;1.20;;;14.90;99.90;;;;;;5099403;28;20446;-38
2022/11/08 08:09:31;;;;;;;2.33;1.20;;;15.00;99.90;;;;;;5104592;28;20238;-39
2022/11/08 08:11:56;;;;;;;2.33;1.40;;;15.10;99.90;;;;;;5090355;28;20667;-38
2022/11/08 08:14:22;;;;;;;2.10;1.10;;;15.20;99.90;;;;;;5095095;28;20437;-39
2022/11/08 08:16:48;;;;;;;3.20;1.20;;;15.30;99.90;;;;;;5098858;28;20238;-38
2022/11/08 08:19:13;;;;;;;1.33;0.97;;;15.50;99.90;;;;;;5109204;28;20772;-39
2022/11/08 08:21:39;;;;;;;2.00;1.33;;;15.70;99.90;;;;;;5108858;28;20204;-39
2022/11/08 08:24:05;;;;;;;5.90;1.70;;;15.80;99.90;;;;;;5091619;28;20219;-39
2022/11/08 08:26:30;;;;;;;2.07;1.23;;;16.00;99.90;;;;;;5070731;28;20611;-39
2022/11/08 08:28:56;;;;;;;1.70;1.40;;;16.10;99.90;;;;;;5087423;28;20172;-39
2022/11/08 08:31:22;;;;;;;3.00;1.40;;;16.10;99.90;;;;;;5094612;28;20233;-39
2022/11/08 08:33:48;;;;;;;1.43;1.20;;;16.30;99.90;;;;;;5107488;28;20176;-39
2022/11/08 08:36:13;;;;;;;4.40;2.13;;;16.40;99.90;;;;;;5106327;28;20245;-39
2022/11/08 08:38:39;;;;;;;3.50;1.67;;;16.60;99.90;;;;;;5098098;28;20279;-40
2022/11/08 08:41:05;;;;;;;2.73;1.40;;;16.60;99.90;;;;;;5087389;28;20195;-39
2022/11/08 08:43:33;;;;;;;1.70;1.30;;;16.60;99.90;;;;;;5087068;28;20203;-39
2022/11/08 08:46:04;;;;;;;1.70;1.60;;;16.50;99.90;;;;;;5088391;28;20556;-39
2022/11/08 08:48:31;;;;;;;3.33;1.33;;;16.40;99.90;;;;;;5088228;28;20523;-39
2022/11/08 08:50:57;;;;;;;2.77;1.60;;;16.30;99.90;;;;;;5088853;28;20407;-39
2022/11/08 08:53:23;;;;;;;1.93;1.37;;;16.30;99.90;;;;;;5088527;28;20447;-39
2022/11/08 08:55:51;;;;;;;2.03;1.20;;;16.20;99.90;;;;;;5088372;28;20423;-38
2022/11/08 08:58:18;;;;;;;2.20;1.00;;;16.00;99.90;;;;;;5088563;28;20920;-38
2022/11/08 09:00:43;;;;;;;3.20;1.50;;;15.90;99.90;;;;;;5087919;28;20471;-39
2022/11/08 09:03:10;;;;;;;2.60;1.30;;;15.90;99.90;;;;;;5088221;28;20988;-39
2022/11/08 09:05:40;;;;;;;2.47;1.67;;;15.80;99.90;;;;;;5088295;28;20203;-40
2022/11/08 09:08:05;;;;;;;2.10;1.43;;;15.80;99.90;;;;;;5088442;28;20457;-39
2022/11/08 09:10:31;;;;;;;1.60;1.20;;;15.70;99.90;;;;;;5087997;28;20443;-39
2022/11/08 09:12:56;;;;;;;1.23;1.00;;;15.70;99.90;;;;;;5088031;28;20176;-39
2022/11/08 09:15:22;;;;;;;1.90;1.10;;;15.70;99.90;;;;;;5088316;28;20200;-39
2022/11/08 09:17:48;;;;;;;1.77;1.40;;;15.70;99.90;;;;;;5088314;28;20199;-38
2022/11/08 09:20:14;;;;;;;1.30;1.17;;;15.70;99.90;;;;;;5088166;28;20176;-39
2022/11/08 09:22:39;;;;;;;4.00;1.53;;;15.70;99.90;;;;;;5087885;28;20238;-39
2022/11/08 09:25:05;;;;;;;3.00;1.73;;;15.70;99.90;;;;;;5088676;28;20180;-39
2022/11/08 09:27:31;;;;;;;1.97;1.30;;;15.70;99.90;;;;;;5088100;28;20168;-38
2022/11/08 09:30:01;;;;;;;3.63;1.30;;;15.60;99.90;;;;;;5088264;28;20928;-39
2022/11/08 09:32:27;;;;;;;2.93;1.40;;;15.50;99.90;;;;;;5086727;28;20411;-38
2022/11/08 09:34:54;;;;;;;2.30;1.13;;;15.60;99.90;;;;;;5088166;28;20406;-39
2022/11/08 09:37:21;;;;;;;2.00;1.07;;;15.60;99.90;;;;;;5087997;28;20450;-39
2022/11/08 09:39:46;;;;;;;1.60;1.40;;;15.70;99.90;;;;;;5087803;28;20410;-39
2022/11/08 09:42:29;;;;;;;2.50;1.37;;;15.70;99.90;;;;;;5086677;28;20716;-38
2022/11/08 09:45:09;;;;;;;2.97;1.30;;;15.80;99.90;;;;;;5088097;28;20176;-39
2022/11/08 09:47:40;;;;;;;1.50;1.37;;;15.80;99.90;;;;;;5088416;28;20435;-40
2022/11/08 09:50:15;;;;;;;1.30;1.10;;;15.80;99.90;;;;;;5087641;28;20779;-38
2022/11/08 09:52:43;;;;;;;3.53;1.40;;;15.80;99.90;;;;;;5087410;28;20413;-39
2022/11/08 09:55:29;;;;;;;2.47;1.33;;;15.90;99.90;;;;;;5087985;28;20942;-39
2022/11/08 09:58:26;;;;;;;2.43;1.43;;;15.90;99.90;;;;;;5087949;28;20495;-40
2022/11/08 10:00:52;;;;;;;1.13;1.00;;;16.00;99.90;;;;;;5087876;28;20498;-39
2022/11/08 10:03:22;;;;;;;3.93;1.63;;;15.90;99.90;;;;;;5087692;28;20899;-39
2022/11/08 10:05:58;;;;;;;3.13;1.40;;;15.90;99.90;;;;;;5087699;28;20257;-39
2022/11/08 10:08:32;;;;;;;4.93;1.50;;;15.80;99.90;;;;;;5090858;28;20493;-39
2022/11/08 10:11:07;;;;;;;2.60;1.30;;;15.80;99.90;;;;;;5091677;28;20434;-38
2022/11/08 10:13:44;;;;;;;1.40;1.30;;;15.70;99.90;;;;;;5091078;28;20446;-39
2022/11/08 10:16:43;;;;;;;1.37;0.93;;;15.70;99.90;;;;;;5091411;28;20410;-38
2022/11/08 10:19:27;;;;;;;1.50;1.40;;;15.60;99.90;;;;;;5091223;28;20418;-38
2022/11/08 10:22:15;;;;;;;2.70;1.40;;;15.50;99.90;;;;;;5090900;28;20856;-38
2022/11/08 10:24:53;;;;;;;2.23;1.43;;;15.50;99.90;;;;;;5071161;28;20441;-39
2022/11/08 10:27:35;;;;;;;2.83;1.30;;;15.40;99.90;;;;;;5071025;28;20500;-39
2022/11/08 10:30:09;;;;;;;2.30;1.50;;;15.40;99.90;;;;;;5070715;28;20407;-38
2022/11/08 10:32:35;;;;;;;2.10;1.53;;;15.30;99.90;;;;;;5069149;28;20451;-38
2022/11/08 10:35:20;;;;;;;3.57;1.70;;;15.30;99.90;;;;;;5070816;28;20419;-38
2022/11/08 10:37:50;;;;;;;2.20;1.30;;;15.30;99.90;;;;;;5070876;28;20419;-38
2022/11/08 10:40:23;;;;;;;2.40;1.30;;;15.30;99.90;;;;;;5070547;28;20930;-39
2022/11/08 10:43:01;;;;;;;1.50;1.40;;;15.30;99.90;;;;;;5070212;28;20447;-39
2022/11/08 10:45:26;;;;;;;2.37;1.47;;;15.30;99.90;;;;;;5071261;28;20494;-39
2022/11/08 10:47:53;;;;;;;2.77;1.60;;;15.30;99.90;;;;;;5069382;28;20502;-39
2022/11/08 10:50:28;;;;;;;2.03;1.60;;;15.20;99.90;;;;;;5070355;28;20723;-39
2022/11/08 10:53:03;;;;;;;2.47;1.20;;;15.30;99.90;;;;;;5070275;28;20501;-38
2022/11/08 10:55:37;;;;;;;4.03;1.23;;;15.30;99.90;;;;;;5070448;28;20429;-39
2022/11/08 10:58:03;;;;;;;1.40;1.30;;;15.30;99.90;;;;;;5070547;28;20888;-39
2022/11/08 11:00:31;;;;;;;3.10;2.10;;;15.30;99.90;;;;;;5070234;28;20994;-39
2022/11/08 11:03:22;;;;;;;2.50;1.33;;;15.30;99.90;;;;;;5069987;28;20470;-39
2022/11/08 11:05:58;;;;;;;1.77;1.37;;;15.20;99.90;;;;;;5087999;28;20979;-39
2022/11/08 11:08:24;;;;;;;1.80;1.70;;;15.20;99.90;;;;;;5090209;28;20437;-39
2022/11/08 11:10:50;;;;;;;1.97;1.63;;;15.30;99.90;;;;;;5090394;28;20772;-39
2022/11/08 11:13:26;;;;;;;2.23;1.40;;;15.20;99.90;;;;;;5090205;28;20513;-39
2022/11/08 11:16:03;;;;;;;1.70;1.60;;;15.20;99.90;;;;;;5090235;28;20830;-38
2022/11/08 11:18:28;;;;;;;2.60;1.20;;;15.20;99.90;;;;;;5090161;28;20750;-39
2022/11/08 11:21:19;;;;;;;1.97;1.53;;;15.10;99.90;;;;;;5090397;28;20441;-39
2022/11/08 11:23:53;;;;;;;4.40;1.77;;;15.10;99.90;;;;;;5089848;28;20271;-39
2022/11/08 11:26:26;;;;;;;2.50;1.50;;;15.10;99.90;;;;;;5089924;28;20717;-39
2022/11/08 11:29:04;;;;;;;1.67;1.50;;;15.10;99.90;;;;;;5089996;28;20406;-39
2022/11/08 11:31:31;;;;;;;1.67;1.57;;;15.10;99.90;;;;;;5090211;28;20435;-38
2022/11/08 11:33:58;;;;;;;2.67;1.70;;;15.10;99.90;;;;;;5088472;28;20815;-39
2022/11/08 11:36:28;;;;;;;1.80;1.67;;;15.10;99.90;;;;;;5090116;28;20413;-39
2022/11/08 11:39:03;;;;;;;2.20;1.50;;;15.10;99.90;;;;;;5089177;28;20414;-38
2022/11/08 11:41:43;;;;;;;5.27;1.80;;;15.20;99.90;;;;;;5090335;28;20804;-38
2022/11/08 11:44:24;;;;;;;2.43;1.50;;;15.20;99.90;;;;;;5089422;28;20413;-39
2022/11/08 11:47:02;;;;;;;1.67;1.43;;;15.30;99.90;;;;;;5090203;28;20418;-39
2022/11/08 11:49:29;;;;;;;2.60;1.87;;;15.40;99.90;;;;;;5088539;28;20483;-39
2022/11/08 11:51:56;;;;;;;1.67;1.33;;;15.50;99.90;;;;;;5089018;28;20421;-39
2022/11/08 11:54:27;;;;;;;2.50;1.80;;;15.50;99.90;;;;;;5088391;28;20415;-38
2022/11/08 11:57:36;;;;;;;3.17;1.70;;;15.60;99.90;;;;;;5088817;28;20438;-38
2022/11/08 12:00:12;;;;;;;3.37;1.40;;;15.60;99.90;;;;;;5045143;28;20791;-39
2022/11/08 12:03:05;;;;;;;3.00;1.63;;;15.70;99.90;;;;;;5085081;28;20493;-39
2022/11/08 12:05:59;;;;;;;3.53;1.73;;;15.80;99.90;;;;;;5087384;28;20526;-38
2022/11/08 12:08:44;;;;;;;2.47;1.77;;;15.90;99.90;;;;;;5068239;28;20509;-39
2022/11/08 12:11:30;;;;;;;5.17;1.60;;;15.90;99.90;;;;;;5088700;28;20734;-39
2022/11/08 12:14:11;;;;;;;2.20;1.50;;;15.90;99.90;;;;;;5088553;28;20421;-39
2022/11/08 12:17:17;;;;;;;4.07;2.50;;;16.00;99.90;;;;;;5088407;28;20414;-39
2022/11/08 12:19:48;;;;;;;1.93;1.63;;;16.00;99.90;;;;;;5088570;28;20407;-38
2022/11/08 12:22:41;;;;;;;2.27;1.70;;;16.00;99.90;;;;;;5088797;28;20458;-39
2022/11/08 12:25:31;;;;;;;2.13;1.20;;;16.00;99.90;;;;;;5088982;28;20457;-39
2022/11/08 12:28:06;;;;;;;3.10;1.60;;;16.00;99.90;;;;;;5088877;28;20442;-39
2022/11/08 12:31:15;;;;;;;2.33;1.50;;;16.00;99.90;;;;;;5088260;28;20406;-38
2022/11/08 12:33:59;;;;;;;1.60;1.37;;;16.00;99.90;;;;;;5087121;28;20493;-39
2022/11/08 12:37:06;;;;;;;6.37;1.70;;;16.10;99.90;;;;;;5089311;28;20455;-39
2022/11/08 12:39:58;;;;;;;3.70;1.63;;;16.10;99.90;;;;;;5088512;28;20422;-39
2022/11/08 12:43:07;;;;;;;1.80;1.60;;;16.20;99.90;;;;;;5086318;28;20473;-39
2022/11/08 12:45:35;;;;;;;3.97;1.40;;;16.20;99.90;;;;;;5045628;28;20416;-39
2022/11/08 12:48:46;;;;;;;4.10;1.90;;;16.20;99.90;;;;;;5082342;28;20418;-39
2022/11/08 12:51:23;;;;;;;2.27;1.83;;;16.20;99.90;;;;;;5088805;28;20414;-39
2022/11/08 12:54:26;;;;;;;2.83;1.73;;;16.20;99.90;;;;;;5088141;28;20427;-39
2022/11/08 12:56:54;;;;;;;3.83;1.40;;;16.10;99.90;;;;;;5086335;28;20422;-38
2022/11/08 12:59:29;;;;;;;2.70;1.80;;;16.10;99.90;;;;;;5087601;28;20426;-38
2022/11/08 13:01:56;;;;;;;5.17;1.80;;;16.10;99.90;;;;;;5088092;28;20445;-39
2022/11/08 13:04:31;;;;;;;2.40;1.90;;;16.10;99.90;;;;;;5087777;28;20484;-39
2022/11/08 13:07:23;;;;;;;3.43;2.23;;;16.10;99.90;;;;;;5088599;28;20940;-39
2022/11/08 13:09:57;;;;;;;1.90;1.30;;;16.00;99.90;;;;;;5088036;28;20684;-39
2022/11/08 13:12:47;;;;;;;3.30;2.17;;;16.10;99.90;;;;;;5088404;28;20405;-38
2022/11/08 13:15:19;;;;;;;5.60;2.10;;;16.10;99.90;;;;;;5088386;28;20698;-39
2022/11/08 13:18:06;;;;;;;3.27;1.97;;;16.10;99.90;;;;;;5088603;28;20517;-39
2022/11/08 13:20:45;;;;;;;4.27;1.80;;;16.10;99.90;;;;;;5088022;28;20801;-39
2022/11/08 13:23:15;;;;;;;1.40;1.10;;;16.10;99.90;;;;;;5087680;28;20461;-39